createdAt,value
2022-11-24T00:02:02.226Z,2.53
2022-11-24T00:05:04.183Z,2.63
2022-11-24T00:08:05.687Z,3.22
2022-11-24T00:11:10.555Z,3.53
2022-11-24T00:14:12.407Z,2.90
2022-11-24T00:17:13.877Z,3.85
2022-11-24T00:20:15.614Z,3.25
2022-11-24T00:23:17.104Z,3.88
2022-11-24T00:26:30.203Z,3.78
2022-11-24T00:29:31.670Z,3.60
2022-11-24T00:32:33.113Z,4.10
2022-11-24T00:35:34.568Z,3.55
2022-11-24T00:38:36.009Z,3.65
2022-11-24T00:41:38.218Z,3.70
2022-11-24T00:44:39.909Z,3.65
2022-11-24T00:47:41.364Z,3.60
2022-11-24T00:50:42.817Z,3.58
2022-11-24T00:53:44.791Z,3.83
2022-11-24T00:56:46.222Z,3.05
2022-11-24T00:59:47.719Z,3.65
2022-11-24T01:02:49.194Z,3.60
2022-11-24T01:05:50.678Z,4.63
2022-11-24T01:08:52.350Z,3.58
2022-11-24T01:11:53.795Z,3.67
2022-11-24T01:14:55.259Z,3.70
2022-11-24T01:17:57.403Z,2.88
2022-11-24T01:20:58.992Z,3.35
2022-11-24T01:24:00.448Z,3.45
2022-11-24T01:27:01.943Z,3.50
2022-11-24T01:30:04.594Z,3.28
2022-11-24T01:33:06.030Z,3.00
2022-11-24T01:36:07.567Z,2.90
2022-11-24T01:39:09.042Z,3.03
2022-11-24T01:42:10.582Z,3.22
2022-11-24T01:45:36.755Z,3.72
2022-11-24T01:48:43.097Z,3.42
2022-11-24T01:52:00.960Z,3.65
2022-11-24T01:55:08.142Z,3.13
2022-11-24T01:58:30.788Z,3.08
2022-11-24T02:01:32.433Z,2.80
2022-11-24T02:04:35.711Z,3.08
2022-11-24T02:07:37.776Z,3.17
2022-11-24T02:10:39.363Z,3.55
2022-11-24T02:13:42.212Z,3.80
2022-11-24T02:16:48.960Z,2.22
2022-11-24T02:19:56.401Z,3.03
2022-11-24T02:23:23.389Z,2.70
2022-11-24T02:26:36.427Z,3.03
2022-11-24T02:29:38.230Z,3.22
2022-11-24T02:32:41.839Z,2.92
2022-11-24T02:35:43.353Z,2.80
2022-11-24T02:38:44.826Z,2.45
2022-11-24T02:41:51.980Z,2.50
2022-11-24T02:44:58.241Z,2.15
2022-11-24T02:47:59.696Z,2.15
2022-11-24T02:51:01.169Z,2.22
2022-11-24T02:54:02.621Z,2.72
2022-11-24T02:57:04.176Z,1.60
2022-11-24T03:00:06.201Z,1.73
2022-11-24T03:03:07.768Z,1.92
2022-11-24T03:06:09.332Z,1.67
2022-11-24T03:09:11.070Z,1.20
2022-11-24T03:12:12.549Z,1.52
2022-11-24T03:15:14.028Z,1.50
2022-11-24T03:18:15.509Z,1.50
2022-11-24T03:21:16.972Z,1.30
2022-11-24T03:24:18.433Z,1.35
2022-11-24T03:27:20.012Z,0.93
2022-11-24T03:30:21.507Z,0.80
2022-11-24T03:33:22.964Z,1.10
2022-11-24T03:36:24.511Z,1.20
2022-11-24T03:39:25.954Z,1.25
2022-11-24T03:42:27.383Z,1.63
2022-11-24T03:48:50.527Z,2.20
2022-11-24T03:51:51.977Z,2.53
2022-11-24T03:54:53.766Z,2.20
2022-11-24T03:57:55.209Z,2.42
2022-11-24T04:00:57.415Z,2.58
2022-11-24T04:03:58.895Z,2.85
2022-11-24T04:07:00.360Z,3.30
2022-11-24T04:10:02.031Z,3.60
2022-11-24T04:13:05.649Z,2.72
2022-11-24T04:16:07.441Z,3.67
2022-11-24T04:19:08.911Z,3.78
2022-11-24T04:22:10.336Z,3.10
2022-11-24T04:25:11.934Z,3.10
2022-11-24T04:28:13.421Z,3.20
2022-11-24T04:31:14.928Z,3.17
2022-11-24T04:34:16.370Z,3.72
2022-11-24T04:37:17.806Z,2.25
2022-11-24T04:40:19.957Z,1.98
2022-11-24T04:43:21.363Z,1.60
2022-11-24T04:46:22.803Z,1.70
2022-11-24T04:49:24.272Z,1.55
2022-11-24T04:52:26.370Z,1.40
2022-11-24T04:55:27.812Z,1.08
2022-11-24T04:58:29.212Z,1.15
2022-11-24T05:01:30.672Z,0.98
2022-11-24T05:04:32.462Z,0.70
2022-11-24T05:07:34.237Z,1.05
2022-11-24T05:10:35.694Z,1.27
2022-11-24T05:13:37.105Z,1.20
2022-11-24T05:16:38.613Z,0.70
2022-11-24T05:19:40.088Z,0.63
2022-11-24T05:22:41.534Z,0.95
2022-11-24T05:25:47.487Z,0.93
2022-11-24T05:28:49.339Z,0.98
2022-11-24T05:31:50.889Z,0.52
2022-11-24T05:34:52.406Z,0.63
2022-11-24T05:37:53.847Z,0.75
2022-11-24T05:40:59.469Z,1.05
2022-11-24T05:44:00.879Z,1.00
2022-11-24T05:47:02.404Z,0.90
2022-11-24T05:50:04.505Z,0.75
2022-11-24T05:53:08.964Z,0.88
2022-11-24T05:56:10.379Z,1.10
2022-11-24T05:59:11.827Z,1.55
2022-11-24T06:02:13.359Z,1.30
2022-11-24T06:05:15.014Z,1.70
2022-11-24T06:08:16.439Z,1.90
2022-11-24T06:11:17.827Z,2.03
2022-11-24T06:14:19.290Z,2.22
2022-11-24T06:17:20.728Z,2.47
2022-11-24T06:20:27.029Z,2.88
2022-11-24T06:23:31.897Z,3.50
2022-11-24T06:26:33.376Z,3.50
2022-11-24T06:29:34.807Z,3.95
2022-11-24T06:32:36.267Z,4.18
2022-11-24T06:35:37.663Z,4.13
2022-11-24T06:38:39.132Z,4.22
2022-11-24T06:41:40.569Z,4.60
2022-11-24T06:44:42.052Z,5.18
2022-11-24T06:47:43.511Z,4.50
2022-11-24T06:50:46.020Z,5.60
2022-11-24T06:53:47.535Z,4.93
2022-11-24T06:56:49.047Z,4.88
2022-11-24T06:59:50.535Z,4.82
2022-11-24T07:02:52.120Z,5.18
2022-11-24T07:05:57.837Z,5.15
2022-11-24T07:08:59.342Z,5.10
2022-11-24T07:12:00.782Z,5.45
2022-11-24T07:15:02.289Z,5.78
2022-11-24T07:18:03.828Z,5.80
2022-11-24T07:21:05.548Z,5.75
2022-11-24T07:24:07.223Z,5.88
2022-11-24T07:27:08.654Z,4.85
2022-11-24T07:30:10.439Z,5.00
2022-11-24T07:33:11.873Z,5.80
2022-11-24T07:36:13.307Z,6.13
2022-11-24T07:39:14.713Z,5.10
2022-11-24T07:42:16.306Z,6.30
2022-11-24T07:45:17.802Z,5.63
2022-11-24T07:48:19.206Z,5.70
2022-11-24T07:51:20.741Z,5.80
2022-11-24T07:54:22.197Z,5.68
2022-11-24T07:57:23.635Z,5.88
2022-11-24T08:00:25.112Z,5.90
2022-11-24T08:03:26.578Z,5.97
2022-11-24T08:06:37.436Z,5.82
2022-11-24T08:09:40.981Z,6.13
2022-11-24T08:12:43.884Z,4.95
2022-11-24T08:15:45.552Z,5.35
2022-11-24T08:18:51.975Z,4.90
2022-11-24T08:21:53.436Z,4.53
2022-11-24T08:24:54.925Z,3.92
2022-11-24T08:27:56.387Z,3.78
2022-11-24T08:31:06.739Z,3.50
2022-11-24T08:34:08.201Z,3.28
2022-11-24T08:37:09.592Z,3.45
2022-11-24T08:40:11.951Z,3.15
2022-11-24T08:43:32.034Z,3.17
2022-11-24T08:46:33.605Z,2.90
2022-11-24T08:49:35.137Z,3.03
2022-11-24T08:52:36.581Z,2.55
2022-11-24T08:55:38.091Z,3.10
2022-11-24T08:58:40.385Z,3.40
2022-11-24T09:01:41.940Z,3.60
2022-11-24T09:04:43.433Z,3.05
2022-11-24T09:07:44.969Z,2.47
2022-11-24T09:10:46.471Z,2.53
2022-11-24T09:13:47.983Z,3.55
2022-11-24T09:16:49.581Z,2.78
2022-11-24T09:19:51.048Z,2.83
2022-11-24T09:22:52.482Z,2.92
2022-11-24T09:25:53.894Z,2.15
2022-11-24T09:28:56.452Z,3.17
2022-11-24T09:32:00.808Z,3.33
2022-11-24T09:35:06.821Z,2.47
2022-11-24T09:38:08.287Z,2.15
2022-11-24T09:41:35.302Z,2.67
2022-11-24T09:44:50.098Z,2.15
2022-11-24T09:48:03.491Z,2.60
2022-11-24T09:51:05.741Z,2.40
2022-11-24T09:54:17.864Z,3.10
2022-11-24T09:57:23.600Z,2.58
2022-11-24T10:00:25.072Z,2.53
2022-11-24T10:03:34.366Z,2.75
2022-11-24T10:07:04.768Z,1.90
2022-11-24T10:10:24.469Z,2.45
2022-11-24T10:13:44.676Z,2.08
2022-11-24T10:17:15.176Z,2.15
2022-11-24T10:20:27.059Z,2.45
2022-11-24T10:23:56.536Z,2.15
2022-11-24T10:27:08.581Z,2.63
2022-11-24T10:30:21.871Z,4.28
2022-11-24T10:33:30.145Z,2.40
2022-11-24T10:36:45.548Z,2.80
2022-11-24T10:40:00.657Z,2.50
2022-11-24T10:43:02.224Z,3.00
2022-11-24T10:46:15.170Z,2.80
2022-11-24T10:49:22.226Z,3.58
2022-11-24T10:52:25.003Z,3.58
2022-11-24T10:55:26.494Z,2.55
2022-11-24T10:58:38.788Z,3.53
2022-11-24T11:01:40.268Z,4.28
2022-11-24T11:04:41.742Z,3.10
2022-11-24T11:07:43.190Z,3.63
2022-11-24T11:10:45.356Z,3.25
2022-11-24T11:13:48.558Z,3.15
2022-11-24T11:16:55.284Z,3.10
2022-11-24T11:20:02.860Z,2.88
2022-11-24T11:23:16.208Z,4.05
2022-11-24T11:26:23.751Z,2.85
2022-11-24T11:36:19.768Z,2.38
2022-11-24T11:39:36.329Z,2.80
2022-11-24T11:43:03.788Z,2.67
2022-11-24T11:46:12.407Z,2.88
2022-11-24T11:49:14.083Z,2.50
2022-11-24T11:52:32.417Z,3.33
2022-11-24T11:55:46.595Z,3.15
2022-11-24T11:59:44.770Z,3.03
2022-11-24T12:03:13.536Z,2.75
2022-11-24T12:06:27.338Z,3.00
2022-11-24T12:10:01.159Z,3.05
2022-11-24T12:13:36.201Z,2.97
2022-11-24T12:20:13.857Z,3.05
2022-11-24T12:23:37.090Z,3.22
2022-11-24T12:26:59.103Z,2.85
2022-11-24T12:30:31.324Z,3.10
2022-11-24T12:33:35.766Z,2.80
2022-11-24T12:37:11.169Z,2.90
2022-11-24T12:40:43.664Z,3.05
2022-11-24T12:43:51.879Z,3.58
2022-11-24T12:46:59.275Z,3.25
2022-11-24T12:50:15.767Z,3.55
2022-11-24T12:53:23.743Z,3.25
2022-11-24T12:56:38.692Z,3.22
2022-11-24T12:59:48.325Z,3.15
2022-11-24T13:03:16.064Z,3.03
2022-11-24T13:06:28.083Z,3.33
2022-11-24T13:09:29.579Z,3.40
2022-11-24T13:12:31.067Z,3.25
2022-11-24T13:19:20.103Z,3.10
2022-11-24T13:22:25.761Z,3.13
2022-11-24T13:25:30.613Z,3.28
2022-11-24T13:29:25.014Z,3.35
2022-11-24T13:32:33.019Z,3.00
2022-11-24T13:35:34.574Z,3.15
2022-11-24T13:38:45.259Z,3.13
2022-11-24T13:41:49.720Z,2.75
2022-11-24T13:44:54.898Z,2.70
2022-11-24T13:47:56.360Z,3.13
2022-11-24T13:51:00.814Z,3.55
2022-11-24T13:54:02.481Z,3.05
2022-11-24T13:57:37.983Z,3.08
2022-11-24T14:01:02.322Z,3.20
2022-11-24T14:04:32.528Z,3.08
2022-11-24T14:07:34.734Z,2.65
2022-11-24T14:10:37.560Z,3.08
2022-11-24T14:13:38.990Z,2.67
2022-11-24T14:16:40.480Z,2.28
2022-11-24T14:19:44.164Z,3.33
2022-11-24T14:22:45.704Z,2.55
2022-11-24T14:25:49.232Z,2.72
2022-11-24T14:28:51.295Z,2.90
2022-11-24T14:31:56.638Z,3.00
2022-11-24T14:34:58.223Z,2.72
2022-11-24T14:38:01.924Z,3.05
2022-11-24T14:41:25.193Z,3.00
2022-11-24T14:44:34.976Z,3.28
2022-11-24T14:47:44.859Z,3.70
2022-11-24T14:50:46.485Z,2.80
2022-11-24T14:53:53.900Z,2.78
2022-11-24T14:57:04.156Z,3.58
2022-11-24T15:00:28.579Z,3.22
2022-11-24T15:03:30.157Z,3.95
2022-11-24T15:06:31.669Z,3.42
2022-11-24T15:09:42.032Z,2.75
2022-11-24T15:12:51.038Z,3.20
2022-11-24T15:16:03.448Z,2.78
2022-11-24T15:19:05.235Z,2.88
2022-11-24T15:22:28.091Z,3.13
2022-11-24T15:25:32.206Z,3.08
2022-11-24T15:28:33.708Z,3.40
2022-11-24T15:31:35.159Z,2.58
2022-11-24T15:34:36.831Z,2.92
2022-11-24T15:37:38.404Z,2.63
2022-11-24T15:40:42.091Z,2.97
2022-11-24T15:43:43.514Z,3.00
2022-11-24T15:46:45.128Z,3.00
2022-11-24T15:49:46.603Z,3.00
2022-11-24T15:52:48.683Z,2.90
2022-11-24T15:55:50.405Z,2.92
2022-11-24T15:58:53.335Z,2.85
2022-11-24T16:01:54.875Z,2.42
2022-11-24T16:04:56.379Z,2.92
2022-11-24T16:07:58.055Z,3.17
2022-11-24T16:10:59.576Z,2.33
2022-11-24T16:14:01.041Z,3.55
2022-11-24T16:17:02.895Z,3.35
2022-11-24T16:20:04.911Z,2.95
2022-11-24T16:23:06.421Z,3.65
2022-11-24T16:26:07.898Z,2.80
2022-11-24T16:29:09.340Z,3.22
2022-11-24T16:32:10.775Z,2.90
2022-11-24T16:35:12.244Z,3.05
2022-11-24T16:38:18.703Z,3.03
2022-11-24T16:41:20.312Z,3.38
2022-11-24T16:44:21.704Z,3.53
2022-11-24T16:47:23.394Z,3.10
2022-11-24T16:50:24.851Z,3.55
2022-11-24T16:53:26.340Z,2.83
2022-11-24T16:56:28.948Z,2.35
2022-11-24T16:59:30.343Z,3.17
2022-11-24T17:02:33.351Z,3.40
2022-11-24T17:05:34.830Z,2.85
2022-11-24T17:08:37.668Z,3.33
2022-11-24T17:11:39.147Z,3.00
2022-11-24T17:14:40.650Z,3.58
2022-11-24T17:18:01.395Z,3.10
2022-11-24T17:21:08.004Z,3.22
2022-11-24T17:24:11.150Z,3.13
2022-11-24T17:27:12.569Z,3.38
2022-11-24T17:30:14.210Z,3.53
2022-11-24T17:33:15.603Z,3.88
2022-11-24T17:36:17.331Z,2.97
2022-11-24T17:39:23.364Z,3.25
2022-11-24T17:42:26.250Z,4.00
2022-11-24T17:45:28.894Z,3.35
2022-11-24T17:48:31.200Z,2.95
2022-11-24T17:51:32.691Z,3.70
2022-11-24T17:54:49.473Z,3.90
2022-11-24T17:57:50.955Z,3.45
2022-11-24T18:00:53.141Z,3.88
2022-11-24T18:03:54.599Z,4.35
2022-11-24T18:06:56.002Z,4.05
2022-11-24T18:09:57.497Z,3.70
2022-11-24T18:12:58.914Z,3.67
2022-11-24T18:16:05.596Z,5.20
2022-11-24T18:19:09.383Z,4.15
2022-11-24T18:22:11.403Z,3.33
2022-11-24T18:25:12.896Z,3.40
2022-11-24T18:28:14.348Z,3.22
2022-11-24T18:31:16.769Z,3.50
2022-11-24T18:34:18.198Z,3.70
2022-11-24T18:37:19.638Z,3.33
2022-11-24T18:40:21.136Z,3.72
2022-11-24T18:43:24.346Z,3.72
2022-11-24T18:46:25.810Z,3.85
2022-11-24T18:49:27.720Z,4.00
2022-11-24T18:52:29.180Z,3.08
2022-11-24T18:55:30.574Z,3.83
2022-11-24T18:58:34.457Z,4.50
2022-11-24T19:01:36.268Z,3.97
2022-11-24T19:04:37.949Z,3.97
2022-11-24T19:07:39.561Z,3.33
2022-11-24T19:10:41.642Z,3.97
2022-11-24T19:13:43.046Z,4.00
2022-11-24T19:16:45.371Z,3.67
2022-11-24T19:19:47.160Z,4.18
2022-11-24T19:22:48.558Z,3.85
2022-11-24T19:25:49.947Z,3.72
2022-11-24T19:28:51.408Z,3.38
2022-11-24T19:31:54.252Z,3.63
2022-11-24T19:34:55.719Z,3.50
2022-11-24T19:37:57.192Z,3.15
2022-11-24T19:41:07.692Z,3.30
2022-11-24T19:44:11.212Z,3.67
2022-11-24T19:47:23.398Z,3.85
2022-11-24T19:50:24.852Z,3.38
2022-11-24T19:53:26.406Z,3.95
2022-11-24T19:56:30.628Z,3.25
2022-11-24T20:02:33.482Z,3.17
2022-11-24T20:05:34.935Z,3.35
2022-11-24T20:08:37.380Z,2.88
2022-11-24T20:11:39.615Z,3.20
2022-11-24T20:14:41.082Z,3.40
2022-11-24T20:17:42.481Z,3.75
2022-11-24T20:20:43.868Z,3.20
2022-11-24T20:23:51.850Z,3.47
2022-11-24T20:26:56.483Z,3.35
2022-11-24T20:29:57.883Z,2.80
2022-11-24T20:32:59.682Z,3.38
2022-11-24T20:36:06.408Z,3.25
2022-11-24T20:39:13.002Z,3.42
2022-11-24T20:42:14.510Z,4.13
2022-11-24T20:45:16.038Z,3.42
2022-11-24T20:48:17.462Z,3.42
2022-11-24T20:51:24.385Z,3.15
2022-11-24T20:54:25.892Z,3.33
2022-11-24T20:57:27.349Z,3.30
2022-11-24T21:00:28.771Z,3.33
2022-11-24T21:03:30.255Z,3.45
2022-11-24T21:06:31.754Z,3.30
2022-11-24T21:09:33.163Z,3.28
2022-11-24T21:12:34.543Z,3.70
2022-11-24T21:15:35.999Z,3.10
2022-11-24T21:18:37.447Z,4.00
2022-11-24T21:21:40.055Z,4.35
2022-11-24T21:24:41.451Z,3.38
2022-11-24T21:27:43.143Z,3.95
2022-11-24T21:30:44.570Z,3.90
2022-11-24T21:33:51.133Z,3.80
2022-11-24T21:36:52.534Z,3.78
2022-11-24T21:39:53.936Z,3.55
2022-11-24T21:42:57.996Z,4.38
2022-11-24T21:46:04.122Z,3.92
2022-11-24T21:49:05.614Z,3.78
2022-11-24T21:52:07.054Z,3.65
2022-11-24T21:55:08.740Z,4.07
2022-11-24T21:58:10.208Z,3.30
2022-11-24T22:01:11.818Z,3.78
2022-11-24T22:04:13.397Z,3.45
2022-11-24T22:07:14.895Z,3.92
2022-11-24T22:10:16.765Z,3.78
2022-11-24T22:13:18.963Z,3.05
2022-11-24T22:16:24.828Z,3.55
2022-11-24T22:19:26.335Z,4.05
2022-11-24T22:22:27.769Z,4.10
2022-11-24T22:25:29.175Z,3.03
2022-11-24T22:28:32.063Z,3.80
2022-11-24T22:31:33.665Z,4.03
2022-11-24T22:34:35.465Z,3.35
2022-11-24T22:37:37.122Z,3.28
2022-11-24T22:40:38.511Z,4.15
2022-11-24T22:43:41.603Z,3.78
2022-11-24T22:46:43.058Z,4.43
2022-11-24T22:49:44.503Z,3.38
2022-11-24T22:52:45.907Z,3.10
2022-11-24T22:55:47.393Z,3.53
2022-11-24T22:58:49.350Z,3.60
2022-11-24T23:01:50.840Z,4.00
2022-11-24T23:04:52.251Z,4.45
2022-11-24T23:07:53.760Z,4.03
2022-11-24T23:11:03.263Z,4.18
2022-11-24T23:14:07.134Z,4.50
2022-11-24T23:17:08.629Z,3.97
2022-11-24T23:20:10.796Z,4.35
2022-11-24T23:23:12.252Z,5.10
2022-11-24T23:26:16.979Z,4.40
2022-11-24T23:29:18.379Z,4.30
2022-11-24T23:32:19.796Z,4.97
2022-11-24T23:35:21.273Z,3.85
2022-11-24T23:38:26.200Z,4.70
2022-11-24T23:41:29.615Z,4.47
2022-11-24T23:44:31.015Z,4.20
2022-11-24T23:47:32.469Z,4.72
2022-11-24T23:50:35.078Z,4.10
2022-11-24T23:53:36.648Z,4.65
2022-11-24T23:56:38.278Z,5.90
2022-11-24T23:59:39.715Z,5.07
